Terminal Aerodrome Forecast
Issued by NWS

Home | Current Version | Previous Version | Graphics & Text | Print | Product List | Glossary On
Versions: 1 2 3 4 5 6 7 8 9 10 11 12 13 14 15 16 17 18
000
FTUS43 KFGF 150523
TAFBJI
TAF
KBJI 150523Z 1506/1606 29013KT P6SM OVC002
     FM150800 29010KT P6SM OVC003
     FM151200 30012G20KT P6SM OVC008
     FM151500 30014G22KT P6SM OVC010
     FM160200 32010KT P6SM BKN015
     FM160400 32006KT P6SM BKN015=

USA.gov is the U.S. government's official web portal to all federal, state and local government web resources and services.